Time;durP1;ratioP1;P1;durP2;ratioP2;P2;SDS_P1;SDS_P2;PMS_P1;PMS_P2;Temp;Humidity;BMP_temperature;BMP_pressure;BME280_temperature;BME280_humidity;BME280_pressure;Samples;Min_cycle;Max_cycle;Signal;HPM_P1;HPM_P2
2022/04/21 00:00:49;;;;;;;2.22;1.73;;;21.50;31.50;;;;;;5033989;28;20060;-80
2022/04/21 00:03:14;;;;;;;2.90;1.70;;;21.50;31.60;;;;;;5024937;28;20022;-78
2022/04/21 00:05:41;;;;;;;2.10;1.50;;;21.50;32.10;;;;;;5008661;28;20014;-79
2022/04/21 00:08:08;;;;;;;2.42;1.30;;;21.50;31.60;;;;;;5024990;28;20022;-80
2022/04/21 00:10:34;;;;;;;2.13;1.30;;;21.50;31.60;;;;;;5024783;28;20010;-80
2022/04/21 00:13:01;;;;;;;3.92;1.55;;;21.50;31.60;;;;;;5024545;28;20014;-81
2022/04/21 00:15:27;;;;;;;3.30;1.70;;;21.50;31.60;;;;;;5008438;28;20050;-80
2022/04/21 00:17:53;;;;;;;3.90;1.48;;;21.50;31.50;;;;;;5026783;28;20017;-81
2022/04/21 00:20:19;;;;;;;2.88;1.60;;;21.50;31.60;;;;;;5026848;28;20070;-79
2022/04/21 00:25:30;;;;;;;2.72;1.55;;;21.50;31.70;;;;;;5027387;28;20040;-80
2022/04/21 00:27:56;;;;;;;3.45;1.60;;;21.50;31.80;;;;;;5026569;28;20057;-80
2022/04/21 00:30:22;;;;;;;1.63;1.40;;;21.50;31.80;;;;;;5026124;28;20025;-80
2022/04/21 00:32:48;;;;;;;1.88;1.48;;;21.50;31.90;;;;;;5025866;28;20017;-79
2022/04/21 00:35:15;;;;;;;2.60;1.42;;;21.50;31.80;;;;;;5010028;28;20388;-81
2022/04/21 00:37:45;;;;;;;2.58;1.50;;;21.40;31.80;;;;;;5025271;28;20026;-79
2022/04/21 00:40:12;;;;;;;4.60;1.80;;;21.50;31.90;;;;;;5023205;28;20022;-79
2022/04/21 00:42:39;;;;;;;2.00;1.50;;;21.50;31.90;;;;;;5022602;28;20018;-79
2022/04/21 00:45:05;;;;;;;2.40;1.48;;;21.40;31.90;;;;;;5024193;28;20050;-79
2022/04/21 00:47:31;;;;;;;2.15;1.30;;;21.50;32.00;;;;;;5023466;28;20101;-80
2022/04/21 00:49:57;;;;;;;2.83;1.50;;;21.50;32.00;;;;;;5005775;28;20100;-80
2022/04/21 00:52:23;;;;;;;1.90;1.40;;;21.40;32.00;;;;;;5006723;28;20022;-79
2022/04/21 00:54:49;;;;;;;4.47;1.60;;;21.50;32.00;;;;;;5023253;28;20026;-79
2022/04/21 00:57:22;;;;;;;2.33;1.58;;;21.40;31.90;;;;;;5022836;28;20416;-78
2022/04/21 00:59:47;;;;;;;2.45;1.60;;;21.40;32.00;;;;;;5023198;28;20480;-79
2022/04/21 01:04:59;;;;;;;2.45;1.52;;;21.40;32.10;;;;;;5023000;28;20033;-80
2022/04/21 01:07:25;;;;;;;2.55;1.60;;;21.40;32.10;;;;;;5006049;28;20014;-80
2022/04/21 01:09:53;;;;;;;3.13;1.67;;;21.40;32.10;;;;;;5022046;28;20397;-78
2022/04/21 01:12:19;;;;;;;2.15;1.42;;;21.40;32.10;;;;;;5022975;28;20089;-79
2022/04/21 01:14:46;;;;;;;2.17;1.40;;;21.40;32.10;;;;;;5022853;28;20120;-81
2022/04/21 01:17:13;;;;;;;5.00;1.60;;;21.40;32.10;;;;;;5023387;28;20056;-79
2022/04/21 01:19:39;;;;;;;2.85;1.48;;;21.40;32.20;;;;;;5007125;28;20086;-78
2022/04/21 01:22:05;;;;;;;3.78;1.60;;;21.40;32.30;;;;;;5007550;28;20113;-79
2022/04/21 01:24:31;;;;;;;2.60;1.67;;;21.40;32.30;;;;;;5023125;28;20049;-79
2022/04/21 01:27:00;;;;;;;5.35;1.70;;;21.40;32.30;;;;;;5022717;28;20010;-79
2022/04/21 01:29:27;;;;;;;1.70;1.48;;;21.40;32.40;;;;;;5023073;28;20018;-80
2022/04/21 01:31:54;;;;;;;3.10;1.60;;;21.40;32.40;;;;;;5023320;28;20097;-78
2022/04/21 01:34:20;;;;;;;2.95;1.40;;;21.40;32.60;;;;;;5006175;28;20022;-79
2022/04/21 01:42:15;;;;;;;3.38;1.55;;;21.40;32.40;;;;;;5023242;28;20044;-79
2022/04/21 01:44:43;;;;;;;2.58;1.55;;;21.40;32.50;;;;;;5022639;28;20448;-77
2022/04/21 01:47:11;;;;;;;2.90;1.48;;;21.40;32.50;;;;;;5006976;28;20018;-78
2022/04/21 01:49:37;;;;;;;3.35;1.60;;;21.40;32.50;;;;;;5023115;28;20018;-79
2022/04/21 01:52:04;;;;;;;2.28;1.58;;;21.30;32.40;;;;;;5006970;28;20460;-79
2022/04/21 01:54:29;;;;;;;2.55;1.55;;;21.30;32.30;;;;;;5006768;28;20018;-78
2022/04/21 01:56:56;;;;;;;3.08;1.80;;;21.40;32.40;;;;;;5024207;28;20073;-79
2022/04/21 01:59:21;;;;;;;2.47;1.60;;;21.40;32.40;;;;;;5023121;28;20038;-78
2022/04/21 02:01:47;;;;;;;3.80;1.58;;;21.30;32.40;;;;;;5023031;28;20014;-79
2022/04/21 02:04:15;;;;;;;2.10;1.40;;;21.30;32.40;;;;;;5023062;28;20085;-77
2022/04/21 02:06:41;;;;;;;2.20;1.50;;;21.30;32.60;;;;;;5023524;28;20096;-79
2022/04/21 02:09:07;;;;;;;2.40;1.60;;;21.30;32.60;;;;;;5024025;28;20018;-78
2022/04/21 02:11:41;;;;;;;2.03;1.48;;;21.30;33.10;;;;;;5022848;28;20093;-78
2022/04/21 02:14:07;;;;;;;2.30;1.40;;;21.30;32.50;;;;;;5003824;28;20093;-80
2022/04/21 02:16:33;;;;;;;2.95;1.70;;;21.30;32.60;;;;;;5003623;28;20072;-78
2022/04/21 02:18:58;;;;;;;2.75;1.50;;;21.30;32.60;;;;;;5019389;28;20022;-78
2022/04/21 02:21:26;;;;;;;4.80;1.77;;;21.30;32.60;;;;;;5019458;28;20091;-80
2022/04/21 02:23:52;;;;;;;2.47;1.40;;;21.30;32.60;;;;;;5021001;28;20022;-77
2022/04/21 02:26:19;;;;;;;3.40;1.50;;;21.30;32.60;;;;;;5003930;28;20117;-78
2022/04/21 02:28:45;;;;;;;2.63;1.30;;;21.30;33.20;;;;;;5020747;28;20029;-77
2022/04/21 02:31:11;;;;;;;2.30;1.30;;;21.30;32.70;;;;;;5020160;28;20041;-79
2022/04/21 02:33:37;;;;;;;2.72;1.40;;;21.30;32.70;;;;;;5020104;28;20105;-79
2022/04/21 02:36:03;;;;;;;2.20;1.30;;;21.30;32.70;;;;;;5020579;28;20097;-78
2022/04/21 02:38:28;;;;;;;2.30;1.60;;;21.30;32.70;;;;;;5020751;28;20022;-78
2022/04/21 02:40:54;;;;;;;2.08;1.50;;;21.30;32.70;;;;;;5020759;28;20026;-78
2022/04/21 02:43:20;;;;;;;2.65;1.30;;;21.30;32.70;;;;;;5021488;28;20033;-77
2022/04/21 02:45:48;;;;;;;2.20;1.50;;;21.30;32.70;;;;;;5020538;28;20041;-76
2022/04/21 02:48:14;;;;;;;2.25;1.48;;;21.30;32.80;;;;;;5019889;28;20018;-76
2022/04/21 02:50:40;;;;;;;2.03;1.30;;;21.30;32.80;;;;;;5021297;28;20014;-78
2022/04/21 02:53:06;;;;;;;4.75;1.60;;;21.30;32.80;;;;;;5020771;28;20022;-76
2022/04/21 02:58:17;;;;;;;2.95;1.50;;;21.30;32.90;;;;;;5020135;28;20037;-76
2022/04/21 03:00:43;;;;;;;2.45;1.65;;;21.20;32.90;;;;;;5018182;28;20022;-77
2022/04/21 03:03:09;;;;;;;3.22;1.60;;;21.30;32.90;;;;;;5002136;28;20022;-76
2022/04/21 03:05:35;;;;;;;3.35;1.90;;;21.30;32.90;;;;;;5019374;28;20029;-77
2022/04/21 03:08:02;;;;;;;2.30;1.50;;;21.20;32.90;;;;;;5018682;28;20078;-78
2022/04/21 03:10:29;;;;;;;2.05;1.42;;;21.20;32.90;;;;;;5019856;28;20033;-78
2022/04/21 03:12:58;;;;;;;3.60;1.50;;;21.20;32.90;;;;;;5019098;28;20030;-79
2022/04/21 03:15:24;;;;;;;3.33;1.60;;;21.20;33.00;;;;;;5035229;28;20050;-80
2022/04/21 03:17:50;;;;;;;5.53;1.58;;;21.20;32.90;;;;;;5019421;28;20028;-80
2022/04/21 03:25:45;;;;;;;3.33;1.50;;;21.20;32.90;;;;;;5024699;28;20052;-80
2022/04/21 03:28:12;;;;;;;3.88;1.40;;;21.20;33.00;;;;;;5022412;28;20014;-79
2022/04/21 03:30:38;;;;;;;2.42;1.60;;;21.20;33.00;;;;;;5023492;28;20018;-79
2022/04/21 03:33:04;;;;;;;2.95;1.60;;;21.20;33.00;;;;;;5024170;28;20924;-78
2022/04/21 03:35:30;;;;;;;4.18;1.40;;;21.20;33.00;;;;;;5007716;28;20028;-77
2022/04/21 03:37:56;;;;;;;2.90;1.63;;;21.20;33.00;;;;;;5024599;28;20026;-77
2022/04/21 03:40:22;;;;;;;3.78;1.70;;;21.20;33.10;;;;;;5024088;28;20084;-77
2022/04/21 03:42:47;;;;;;;3.53;1.52;;;21.20;33.10;;;;;;5024206;28;20018;-76
2022/04/21 03:45:13;;;;;;;2.28;1.50;;;21.20;33.10;;;;;;5007373;28;20109;-78
2022/04/21 03:47:39;;;;;;;4.40;2.00;;;21.20;33.10;;;;;;5006611;28;20022;-77
2022/04/21 03:50:08;;;;;;;3.28;1.80;;;21.10;33.10;;;;;;5006548;28;20014;-78
2022/04/21 03:52:35;;;;;;;4.57;1.60;;;21.20;33.10;;;;;;5022884;28;20026;-78
2022/04/21 03:55:01;;;;;;;4.70;1.70;;;21.10;33.10;;;;;;5022679;28;20029;-79
2022/04/21 03:57:29;;;;;;;2.42;1.50;;;21.10;33.10;;;;;;5025312;28;20029;-77
2022/04/21 03:59:54;;;;;;;3.47;1.60;;;21.10;33.10;;;;;;5023802;28;20018;-77
2022/04/21 04:02:20;;;;;;;2.00;1.50;;;21.20;33.20;;;;;;5022904;28;20022;-77
2022/04/21 04:04:47;;;;;;;2.63;1.58;;;21.10;33.20;;;;;;5023151;28;20121;-78
2022/04/21 04:12:42;;;;;;;2.38;1.33;;;21.10;33.30;;;;;;5023844;28;20025;-76
2022/04/21 04:15:09;;;;;;;2.58;1.73;;;21.10;33.20;;;;;;5015803;28;20060;-75
2022/04/21 04:17:35;;;;;;;5.75;1.77;;;21.10;33.30;;;;;;5015318;28;20030;-76
2022/04/21 04:20:01;;;;;;;3.63;1.50;;;21.10;33.30;;;;;;5016658;28;20029;-76
2022/04/21 04:22:26;;;;;;;2.67;1.60;;;21.10;33.40;;;;;;5000927;28;20484;-76
2022/04/21 04:24:56;;;;;;;3.28;1.50;;;21.10;33.50;;;;;;5017010;28;20106;-76
2022/04/21 04:27:22;;;;;;;4.85;1.55;;;21.10;33.50;;;;;;5017384;28;20042;-76
2022/04/21 04:29:47;;;;;;;2.85;1.85;;;21.10;33.50;;;;;;5015846;28;20014;-76
2022/04/21 04:32:14;;;;;;;5.00;1.60;;;21.00;33.50;;;;;;5014743;28;20029;-76
2022/04/21 04:34:41;;;;;;;2.65;1.35;;;21.00;33.50;;;;;;4999220;28;20663;-76
2022/04/21 04:37:07;;;;;;;4.35;1.40;;;21.10;33.60;;;;;;5015068;28;20117;-77
2022/04/21 04:39:32;;;;;;;4.90;1.65;;;21.10;33.70;;;;;;5014809;28;20046;-76
2022/04/21 04:42:17;;;;;;;3.40;1.90;;;21.10;33.70;;;;;;5014705;28;20028;-76
2022/04/21 04:44:46;;;;;;;2.15;1.45;;;21.10;33.60;;;;;;5014321;28;20388;-76
2022/04/21 04:47:12;;;;;;;2.45;1.70;;;21.10;33.60;;;;;;5014329;28;20022;-76
2022/04/21 04:49:38;;;;;;;4.50;1.60;;;21.10;33.70;;;;;;5014344;28;20022;-76
2022/04/21 04:52:04;;;;;;;2.35;1.60;;;21.10;33.80;;;;;;5014540;28;20016;-76
2022/04/21 04:54:30;;;;;;;3.42;1.70;;;21.10;33.70;;;;;;5030802;28;20030;-76
2022/04/21 04:56:56;;;;;;;5.57;2.17;;;21.10;33.60;;;;;;4998110;28;20052;-79
2022/04/21 04:59:22;;;;;;;3.25;1.50;;;21.10;33.50;;;;;;4998218;28;20022;-76
2022/04/21 05:01:48;;;;;;;3.47;1.80;;;21.20;33.50;;;;;;5014290;28;20030;-76
2022/04/21 05:04:18;;;;;;;2.90;1.75;;;21.20;33.40;;;;;;5014891;28;20026;-76
2022/04/21 05:06:46;;;;;;;4.03;1.75;;;21.30;33.20;;;;;;5014364;28;20006;-78
2022/04/21 05:09:14;;;;;;;3.00;1.67;;;21.30;33.40;;;;;;5014717;28;20026;-78
2022/04/21 05:11:43;;;;;;;4.38;1.70;;;21.30;33.60;;;;;;5002765;28;20013;-78
2022/04/21 05:14:09;;;;;;;3.20;1.55;;;21.30;33.50;;;;;;5001133;28;20030;-79
2022/04/21 05:16:39;;;;;;;3.03;1.83;;;21.30;33.40;;;;;;5000280;28;20042;-79
2022/04/21 05:19:07;;;;;;;3.53;1.55;;;21.40;33.40;;;;;;4999270;28;20022;-79
2022/04/21 05:21:34;;;;;;;2.83;1.77;;;21.40;33.30;;;;;;5014100;28;20088;-78
2022/04/21 05:24:00;;;;;;;2.75;1.60;;;21.40;33.20;;;;;;5013665;28;20028;-79
2022/04/21 05:26:27;;;;;;;3.65;1.58;;;21.50;33.10;;;;;;4997522;28;20018;-80
2022/04/21 05:28:53;;;;;;;2.75;1.70;;;21.50;33.10;;;;;;5013515;28;20478;-79
2022/04/21 05:31:19;;;;;;;4.05;1.60;;;21.50;33.20;;;;;;4981459;28;20133;-79
2022/04/21 05:33:46;;;;;;;5.80;1.58;;;21.60;33.20;;;;;;4999066;28;20393;-80
2022/04/21 05:36:13;;;;;;;2.58;1.30;;;21.70;33.10;;;;;;4999920;28;20194;-80
2022/04/21 05:38:39;;;;;;;3.60;1.48;;;21.80;33.10;;;;;;5016334;28;20030;-78
2022/04/21 05:41:06;;;;;;;2.30;1.40;;;21.80;33.00;;;;;;4999508;28;20018;-77
2022/04/21 05:43:42;;;;;;;3.25;1.30;;;21.90;33.00;;;;;;5015538;28;20029;-77
2022/04/21 05:46:09;;;;;;;2.55;1.40;;;22.00;32.90;;;;;;5016390;28;20020;-77
2022/04/21 05:48:36;;;;;;;4.40;1.67;;;22.10;32.60;;;;;;4999363;28;20018;-76
2022/04/21 05:51:02;;;;;;;2.17;1.40;;;22.20;32.80;;;;;;4998026;28;20105;-76
2022/04/21 05:53:29;;;;;;;2.17;1.40;;;22.40;32.50;;;;;;5015912;28;20025;-75
2022/04/21 05:55:55;;;;;;;2.97;1.30;;;22.60;32.10;;;;;;5016941;28;20080;-75
2022/04/21 05:58:22;;;;;;;1.85;1.40;;;22.80;31.70;;;;;;4999702;28;20021;-76
2022/04/21 06:00:49;;;;;;;2.40;1.38;;;23.10;31.30;;;;;;5016733;28;20014;-77
2022/04/21 06:03:24;;;;;;;2.05;1.23;;;23.30;30.90;;;;;;4983513;28;20112;-76
2022/04/21 06:05:51;;;;;;;5.75;1.38;;;23.50;30.60;;;;;;5017571;28;20021;-78
2022/04/21 06:08:17;;;;;;;1.50;1.25;;;23.70;30.30;;;;;;5015588;28;20374;-74
2022/04/21 06:10:46;;;;;;;2.35;1.30;;;23.80;30.00;;;;;;5014575;28;20018;-75
2022/04/21 06:13:15;;;;;;;2.92;1.65;;;24.00;30.00;;;;;;5016461;28;20488;-77
2022/04/21 06:15:43;;;;;;;3.53;1.70;;;24.10;29.80;;;;;;4983200;28;20098;-76
2022/04/21 06:18:13;;;;;;;2.45;1.17;;;24.10;29.60;;;;;;4983264;28;20022;-76
2022/04/21 06:20:40;;;;;;;3.90;1.48;;;24.30;29.60;;;;;;5015668;28;20014;-76
2022/04/21 06:23:07;;;;;;;2.63;1.60;;;24.30;29.40;;;;;;5015949;28;20053;-77
2022/04/21 06:25:35;;;;;;;8.43;1.95;;;24.30;29.30;;;;;;4997593;28;20026;-79
2022/04/21 06:28:03;;;;;;;14.38;2.50;;;24.30;29.50;;;;;;4998683;28;20010;-80
2022/04/21 06:30:37;;;;;;;13.60;2.85;;;24.10;30.90;;;;;;4998565;28;20123;-79
2022/04/21 06:33:03;;;;;;;10.68;2.67;;;23.80;31.10;;;;;;4998378;28;20022;-79
2022/04/21 06:35:29;;;;;;;13.25;2.53;;;23.80;31.60;;;;;;5014474;28;20026;-80
2022/04/21 06:37:55;;;;;;;14.65;2.55;;;23.50;31.80;;;;;;5013726;28;20044;-76
2022/04/21 06:40:22;;;;;;;11.88;3.15;;;23.50;31.70;;;;;;5014299;28;20113;-77
2022/04/21 06:42:47;;;;;;;11.20;2.80;;;23.50;31.60;;;;;;5014945;28;20093;-77
2022/04/21 06:48:04;;;;;;;7.22;2.20;;;23.70;31.30;;;;;;5016020;28;20079;-77
2022/04/21 06:50:37;;;;;;;8.18;2.17;;;23.70;31.50;;;;;;5015415;28;20014;-76
2022/04/21 06:53:07;;;;;;;11.60;2.03;;;23.80;31.00;;;;;;4998708;28;20022;-79
2022/04/21 06:55:34;;;;;;;6.95;2.42;;;24.00;30.80;;;;;;5014238;28;20013;-77
2022/04/21 06:58:00;;;;;;;4.75;2.17;;;24.00;30.50;;;;;;4998389;28;20149;-77
2022/04/21 07:00:27;;;;;;;7.05;2.55;;;24.00;30.60;;;;;;5014531;28;20022;-79
2022/04/21 07:02:56;;;;;;;4.07;1.90;;;23.80;30.50;;;;;;5014323;28;20045;-77
2022/04/21 07:05:23;;;;;;;9.50;2.13;;;23.90;30.50;;;;;;4998575;28;20033;-79
2022/04/21 07:07:49;;;;;;;6.22;2.70;;;24.10;30.40;;;;;;4999115;28;20010;-77
2022/04/21 07:10:16;;;;;;;7.78;2.20;;;23.60;30.00;;;;;;5014467;28;20109;-80
2022/04/21 07:12:42;;;;;;;5.47;2.00;;;23.80;30.20;;;;;;5015002;28;20025;-76
2022/04/21 07:15:10;;;;;;;7.70;2.42;;;23.80;30.20;;;;;;5014872;28;20144;-75
2022/04/21 07:17:39;;;;;;;7.97;1.95;;;24.10;29.90;;;;;;5014094;28;20483;-76
2022/04/21 07:20:07;;;;;;;4.33;1.90;;;24.50;29.50;;;;;;5024733;28;20010;-75
2022/04/21 07:22:32;;;;;;;7.32;2.00;;;24.80;29.10;;;;;;5000205;28;20323;-75
2022/04/21 07:25:00;;;;;;;5.00;2.00;;;25.00;28.70;;;;;;5013847;28;20048;-77
2022/04/21 07:27:26;;;;;;;8.68;2.10;;;25.20;28.50;;;;;;4997107;28;20070;-75
2022/04/21 07:29:52;;;;;;;8.10;2.20;;;25.30;28.50;;;;;;5013949;28;20432;-76
2022/04/21 07:32:18;;;;;;;3.92;1.80;;;25.30;28.00;;;;;;4981025;28;20044;-77
2022/04/21 07:34:44;;;;;;;6.97;1.75;;;25.40;27.90;;;;;;5013881;28;20021;-79
2022/04/21 07:37:10;;;;;;;7.30;2.03;;;25.40;27.70;;;;;;4998373;28;20030;-76
2022/04/21 07:39:37;;;;;;;8.18;2.17;;;25.50;27.60;;;;;;5013721;28;20026;-76
2022/04/21 07:42:05;;;;;;;5.00;1.65;;;25.50;27.40;;;;;;4997726;28;20021;-76
2022/04/21 07:44:31;;;;;;;5.55;1.80;;;25.50;27.40;;;;;;5013012;28;20496;-75
2022/04/21 07:46:57;;;;;;;7.22;2.03;;;25.70;27.30;;;;;;5013249;28;20034;-76
2022/04/21 07:54:52;;;;;;;6.60;1.70;;;25.80;27.00;;;;;;5014466;28;20115;-77
2022/04/21 07:57:18;;;;;;;8.90;2.17;;;25.80;27.10;;;;;;5014078;28;20021;-79
2022/04/21 07:59:45;;;;;;;9.55;2.28;;;25.80;26.90;;;;;;5015261;28;20036;-76
2022/04/21 08:02:11;;;;;;;10.30;2.03;;;25.80;26.90;;;;;;5013783;28;20153;-76
2022/04/21 08:04:40;;;;;;;9.18;1.98;;;25.90;26.80;;;;;;4996829;28;20105;-76
2022/04/21 08:07:06;;;;;;;10.93;2.30;;;25.80;26.60;;;;;;4996960;28;20029;-76
2022/04/21 08:09:32;;;;;;;7.63;1.90;;;25.70;26.80;;;;;;5016738;28;20415;-75
2022/04/21 08:11:58;;;;;;;7.00;1.75;;;25.70;26.70;;;;;;5016124;28;20105;-76
2022/04/21 08:14:24;;;;;;;7.30;1.80;;;25.70;27.10;;;;;;4999867;28;20507;-75
2022/04/21 08:16:53;;;;;;;16.00;2.90;;;25.80;26.70;;;;;;4999398;28;20034;-76
2022/04/21 08:19:22;;;;;;;8.75;1.88;;;25.80;26.70;;;;;;4984155;28;20014;-76
2022/04/21 08:21:48;;;;;;;11.82;2.63;;;25.90;26.60;;;;;;5003544;28;20026;-77
2022/04/21 08:32:33;;;;;;;14.70;2.65;;;24.80;28.50;;;;;;5017541;28;20359;-79
2022/04/21 08:35:02;;;;;;;10.88;3.05;;;24.10;28.40;;;;;;5001136;28;20029;-81
2022/04/21 08:37:28;;;;;;;9.02;1.88;;;23.50;28.90;;;;;;5017199;28;20441;-78
2022/04/21 08:39:55;;;;;;;5.75;2.30;;;23.60;29.00;;;;;;5001388;28;20018;-79
2022/04/21 08:42:21;;;;;;;7.78;2.20;;;23.70;28.90;;;;;;5019861;28;20017;-78
2022/04/21 08:44:47;;;;;;;9.40;2.10;;;23.40;29.20;;;;;;5017224;28;20444;-78
2022/04/21 08:47:14;;;;;;;6.43;2.00;;;23.30;29.40;;;;;;5001978;28;20338;-78
2022/04/21 08:49:40;;;;;;;6.72;2.20;;;23.30;29.20;;;;;;5017356;28;20014;-78
2022/04/21 08:52:07;;;;;;;4.13;2.00;;;23.30;29.20;;;;;;5003000;28;20025;-77
2022/04/21 08:54:33;;;;;;;6.95;2.40;;;23.40;29.10;;;;;;5001920;28;20049;-76
2022/04/21 08:57:00;;;;;;;6.95;2.72;;;23.30;29.20;;;;;;5018968;28;20018;-77
2022/04/21 08:59:28;;;;;;;6.43;2.55;;;22.70;29.50;;;;;;5017242;28;20073;-77
2022/04/21 09:01:57;;;;;;;3.75;2.25;;;22.40;30.00;;;;;;5016803;28;20032;-78
2022/04/21 09:04:23;;;;;;;4.07;1.85;;;22.40;30.00;;;;;;5016510;28;20039;-78
2022/04/21 09:06:49;;;;;;;6.78;1.95;;;22.60;30.00;;;;;;5016838;28;20053;-77
2022/04/21 09:09:22;;;;;;;4.90;1.75;;;23.00;29.90;;;;;;5015249;28;20453;-78
2022/04/21 09:11:54;;;;;;;9.05;2.10;;;23.50;29.30;;;;;;5016008;28;20018;-78
2022/04/21 09:14:20;;;;;;;8.18;1.75;;;23.30;29.20;;;;;;5017146;28;20044;-77
2022/04/21 09:16:47;;;;;;;8.18;1.80;;;23.40;29.30;;;;;;5001935;28;20025;-79
2022/04/21 09:19:15;;;;;;;6.95;1.48;;;23.50;29.60;;;;;;5000841;28;20025;-77
2022/04/21 09:21:42;;;;;;;6.10;1.90;;;23.60;29.30;;;;;;5017481;28;20026;-75
2022/04/21 09:24:30;;;;;;;3.13;1.35;;;23.60;28.80;;;;;;5017750;28;20022;-77
2022/04/21 09:26:56;;;;;;;9.40;1.80;;;23.50;28.90;;;;;;5018238;28;20029;-76
2022/04/21 09:29:23;;;;;;;8.98;1.83;;;23.60;28.80;;;;;;5017730;28;20005;-76
2022/04/21 09:31:54;;;;;;;4.53;1.38;;;23.90;28.80;;;;;;5001414;28;20028;-78
2022/04/21 09:34:20;;;;;;;6.85;1.38;;;24.20;28.50;;;;;;5001126;28;20096;-78
2022/04/21 09:36:46;;;;;;;6.50;1.48;;;24.50;28.40;;;;;;5000592;28;20550;-78
2022/04/21 09:39:14;;;;;;;5.35;1.40;;;24.50;28.40;;;;;;5017026;28;20028;-78
2022/04/21 09:41:40;;;;;;;7.97;1.50;;;24.70;28.70;;;;;;5017769;28;20022;-76
2022/04/21 09:47:09;;;;;;;9.00;1.85;;;24.70;28.10;;;;;;4990836;28;20045;-81
2022/04/21 09:49:36;;;;;;;9.35;2.72;;;24.10;28.40;;;;;;5018456;28;20089;-81
2022/04/21 09:52:02;;;;;;;3.83;2.03;;;23.60;28.80;;;;;;5001844;28;20040;-79
2022/04/21 09:54:28;;;;;;;2.85;1.60;;;23.60;28.90;;;;;;5003246;28;20022;-79
2022/04/21 09:56:54;;;;;;;5.70;1.30;;;23.60;29.20;;;;;;5017059;28;20097;-77
2022/04/21 09:59:20;;;;;;;5.05;1.52;;;23.70;29.10;;;;;;5016652;28;20026;-76
2022/04/21 10:01:46;;;;;;;9.23;1.40;;;23.60;29.10;;;;;;5000674;28;20037;-75
2022/04/21 10:04:13;;;;;;;3.92;1.50;;;23.80;29.00;;;;;;4982886;28;20022;-76
2022/04/21 10:06:42;;;;;;;6.07;1.20;;;24.10;28.60;;;;;;4998568;28;20038;-77
2022/04/21 10:09:12;;;;;;;4.75;1.52;;;24.30;28.20;;;;;;5016082;28;20017;-78
2022/04/21 10:11:40;;;;;;;6.20;1.60;;;24.40;28.30;;;;;;5000764;28;20014;-77
2022/04/21 10:14:11;;;;;;;5.63;1.40;;;24.00;28.40;;;;;;5001011;28;20020;-76
2022/04/21 10:16:38;;;;;;;6.10;1.98;;;24.10;28.50;;;;;;4984935;28;20037;-77
2022/04/21 10:19:04;;;;;;;8.45;2.05;;;24.10;28.20;;;;;;5002445;28;20037;-77
2022/04/21 10:21:56;;;;;;;3.78;1.48;;;23.90;28.10;;;;;;5017542;28;20022;-76
2022/04/21 10:24:22;;;;;;;6.13;1.80;;;23.80;28.30;;;;;;5018193;28;20045;-76
2022/04/21 10:26:52;;;;;;;5.28;1.90;;;23.70;28.40;;;;;;4986679;28;20018;-76
2022/04/21 10:29:21;;;;;;;3.75;1.70;;;24.00;28.10;;;;;;5003514;28;20022;-75
2022/04/21 10:31:51;;;;;;;5.47;1.85;;;23.90;28.30;;;;;;5020537;28;20030;-77
2022/04/21 10:34:36;;;;;;;4.40;1.65;;;24.00;28.10;;;;;;5005716;28;20061;-76
2022/04/21 10:37:21;;;;;;;10.05;1.42;;;23.50;28.60;;;;;;5008624;28;20021;-75
2022/04/21 10:40:07;;;;;;;2.33;1.33;;;23.70;28.50;;;;;;5025955;28;20037;-75
2022/04/21 10:42:52;;;;;;;4.13;1.60;;;23.50;28.50;;;;;;5029287;28;20037;-75
2022/04/21 10:45:25;;;;;;;5.78;1.83;;;23.70;28.40;;;;;;5035557;28;20034;-76
2022/04/21 10:48:13;;;;;;;4.35;1.92;;;23.50;28.30;;;;;;5034564;28;20006;-76
2022/04/21 10:50:40;;;;;;;9.60;2.15;;;23.50;28.10;;;;;;5034198;28;20018;-75
2022/04/21 10:58:39;;;;;;;8.27;2.55;;;22.70;29.40;;;;;;5035536;28;20049;-74
2022/04/21 11:01:23;;;;;;;4.07;1.85;;;22.60;29.00;;;;;;5034903;28;20042;-73
2022/04/21 11:04:27;;;;;;;3.97;1.33;;;23.00;29.00;;;;;;5017993;28;20034;-78
2022/04/21 11:07:04;;;;;;;5.28;1.52;;;23.50;28.80;;;;;;5034741;28;20017;-76
2022/04/21 11:09:42;;;;;;;8.48;1.77;;;23.90;28.60;;;;;;5034558;28;20086;-78
2022/04/21 11:12:09;;;;;;;6.18;1.30;;;24.30;28.30;;;;;;5034819;28;20018;-75
2022/04/21 11:14:36;;;;;;;5.93;1.20;;;24.50;28.10;;;;;;5018512;23;20046;-39
2022/04/21 11:17:08;;;;;;;3.15;1.10;;;24.70;28.00;;;;;;5010810;28;20476;-39
2022/04/21 11:19:36;;;;;;;4.70;1.40;;;24.80;28.10;;;;;;5012091;28;20090;-40
2022/04/21 11:22:05;;;;;;;6.03;1.20;;;24.90;27.90;;;;;;5011434;28;20014;-37
2022/04/21 11:24:58;;;;;;;4.50;1.00;;;24.90;28.30;;;;;;5009780;28;20032;-39
2022/04/21 11:27:25;;;;;;;5.60;1.30;;;25.00;28.40;;;;;;5011830;28;20093;-41
2022/04/21 11:29:50;;;;;;;4.22;1.20;;;25.00;28.50;;;;;;5010042;28;20018;-41
2022/04/21 11:32:22;;;;;;;2.63;1.33;;;25.10;28.50;;;;;;5010955;28;20022;-40
2022/04/21 11:34:57;;;;;;;5.75;1.88;;;25.10;28.70;;;;;;5009865;28;20097;-39
2022/04/21 11:37:23;;;;;;;9.68;2.13;;;25.10;29.10;;;;;;5008868;28;20109;-40
2022/04/21 11:39:49;;;;;;;5.78;1.20;;;25.10;29.20;;;;;;5009350;28;20034;-39
2022/04/21 11:42:27;;;;;;;6.55;1.20;;;25.10;29.20;;;;;;5010958;28;20018;-40
2022/04/21 11:44:54;;;;;;;4.72;1.50;;;25.00;29.20;;;;;;5015904;28;20040;-40
2022/04/21 11:47:22;;;;;;;5.50;1.23;;;24.80;29.30;;;;;;4998661;28;20022;-40
2022/04/21 11:50:01;;;;;;;6.55;1.10;;;24.50;29.40;;;;;;5017165;28;20064;-39
2022/04/21 11:52:32;;;;;;;3.72;1.13;;;24.40;29.40;;;;;;5015563;28;20010;-40
2022/04/21 11:55:02;;;;;;;9.80;1.50;;;24.20;28.80;;;;;;5015785;28;20104;-39
2022/04/21 11:57:43;;;;;;;4.35;1.55;;;24.10;28.40;;;;;;5016528;28;20059;-39
2022/04/21 12:00:11;;;;;;;4.75;1.20;;;24.10;27.90;;;;;;5016378;28;20523;-43
2022/04/21 12:08:11;;;;;;;5.75;1.25;;;23.80;27.30;;;;;;5016494;28;20029;-40
2022/04/21 12:10:37;;;;;;;3.53;1.17;;;23.60;27.40;;;;;;5015792;28;20049;-41
2022/04/21 12:13:03;;;;;;;2.58;1.00;;;23.50;27.20;;;;;;4998140;28;20111;-40
2022/04/21 12:15:31;;;;;;;5.15;1.30;;;23.60;27.10;;;;;;5014802;28;20559;-40
2022/04/21 12:18:04;;;;;;;3.33;1.15;;;23.60;26.60;;;;;;5014264;28;20456;-40
2022/04/21 12:20:30;;;;;;;3.30;1.10;;;23.60;26.60;;;;;;5015663;28;20021;-40
2022/04/21 12:22:56;;;;;;;2.20;1.10;;;23.50;26.20;;;;;;5014545;28;20017;-40
2022/04/21 12:25:31;;;;;;;3.83;1.00;;;23.50;26.50;;;;;;5015573;28;20026;-42
2022/04/21 12:28:04;;;;;;;3.15;1.20;;;23.50;26.30;;;;;;5015198;28;20041;-40
2022/04/21 12:30:30;;;;;;;2.97;0.98;;;23.50;25.70;;;;;;5014736;28;20117;-39
2022/04/21 12:32:56;;;;;;;5.97;1.70;;;23.30;26.10;;;;;;5014728;28;20010;-39
2022/04/21 12:35:44;;;;;;;7.68;2.17;;;23.20;25.60;;;;;;5013897;28;20462;-41
2022/04/21 12:40:59;;;;;;;3.30;1.20;;;22.80;25.80;;;;;;5014434;28;20116;-41
2022/04/21 12:43:28;;;;;;;3.42;1.23;;;23.10;26.00;;;;;;5015464;28;20097;-41
2022/04/21 12:45:57;;;;;;;6.53;1.30;;;23.30;26.10;;;;;;5014236;28;20025;-42
2022/04/21 12:48:24;;;;;;;7.00;1.25;;;23.50;26.10;;;;;;5013847;28;20064;-39
2022/04/21 12:50:50;;;;;;;10.63;1.27;;;23.80;26.40;;;;;;5015294;28;20014;-38
2022/04/21 12:53:26;;;;;;;1.77;0.82;;;23.90;26.80;;;;;;5014831;28;20132;-37
2022/04/21 12:55:52;;;;;;;5.15;0.98;;;24.10;26.90;;;;;;5015333;28;20132;-38
2022/04/21 12:58:31;;;;;;;6.43;0.90;;;24.20;27.20;;;;;;5015196;28;20032;-38
2022/04/21 13:01:00;;;;;;;4.20;0.80;;;24.30;27.30;;;;;;5015389;28;20034;-35
2022/04/21 13:03:29;;;;;;;4.68;0.98;;;24.40;27.40;;;;;;5015703;28;20041;-37
2022/04/21 13:05:56;;;;;;;4.65;1.10;;;24.40;27.50;;;;;;5015197;28;20377;-37
2022/04/21 13:08:26;;;;;;;4.95;0.88;;;24.50;27.50;;;;;;5015114;28;20480;-37
2022/04/21 13:10:54;;;;;;;1.83;0.70;;;24.50;27.70;;;;;;5015319;28;20033;-38
2022/04/21 13:13:20;;;;;;;5.75;0.82;;;24.50;27.70;;;;;;5012975;28;20512;-38
2022/04/21 13:15:46;;;;;;;5.72;0.90;;;24.50;28.00;;;;;;5013944;28;20144;-38
2022/04/21 13:18:13;;;;;;;6.57;1.00;;;24.60;28.50;;;;;;5014142;28;20437;-39
2022/04/21 13:23:26;;;;;;;7.22;1.00;;;24.50;28.20;;;;;;5014934;28;20503;-38
2022/04/21 13:25:53;;;;;;;9.13;1.10;;;24.40;28.20;;;;;;4997756;28;20022;-39
2022/04/21 13:28:19;;;;;;;6.10;0.90;;;24.40;28.30;;;;;;5014286;28;20105;-39
2022/04/21 13:30:44;;;;;;;3.70;0.70;;;24.40;28.00;;;;;;5014306;28;20026;-40
2022/04/21 13:33:22;;;;;;;3.58;1.08;;;24.40;27.90;;;;;;5014731;28;20033;-39
2022/04/21 13:35:52;;;;;;;5.63;1.20;;;24.30;27.60;;;;;;5014313;28;20085;-39
2022/04/21 13:38:18;;;;;;;6.97;0.88;;;24.20;27.50;;;;;;5015494;28;20022;-39
2022/04/21 13:40:47;;;;;;;6.22;1.05;;;24.20;27.50;;;;;;5015511;28;20022;-39
2022/04/21 13:43:12;;;;;;;3.45;0.70;;;24.20;27.50;;;;;;4998147;28;20034;-41
2022/04/21 13:45:39;;;;;;;4.20;1.15;;;24.10;27.50;;;;;;5015145;28;20064;-40
2022/04/21 13:48:07;;;;;;;3.35;0.85;;;24.10;27.50;;;;;;5014157;28;20583;-41
2022/04/21 13:50:33;;;;;;;5.85;0.90;;;24.10;27.50;;;;;;5015853;28;20014;-40